< Typhoon 200505 2005 Season Typhoon 200507 >
Typhoon 200506 (NALGAE)
General InformationTrack Information on Google MapsDetailed Wind InformationAccess Analytics MapList of All Images || NewsDisaster Info.WeblogTrackbackTyphoon FrontResourceGoogle EarthGE AnimationAtom FeedGeoJSON
Detalied Best Track (Time Zone = UTC)
Year Month Day Hour Lat. Long. Pressure (hPa) Wind (kt) Class Image Chart
2005 7 18 00 21.3 168.0 1008 0 2 Image Chart
2005 7 18 06 21.9 168.0 1008 0 2 Image Chart
2005 7 18 12 22.3 167.6 1008 0 2 Image Chart
2005 7 18 18 22.7 167.1 1008 0 2 Image Chart
2005 7 19 00 22.8 166.4 1008 0 2 Image Chart
2005 7 19 06 23.0 165.7 1008 0 2 Image Chart
2005 7 19 12 23.2 165.0 1008 0 2 Image Chart
2005 7 19 18 23.6 164.4 1006 0 2 Image Chart
2005 7 20 00 24.2 163.9 1004 0 2 Image Chart
2005 7 20 06 25.0 163.2 1004 0 2 Image Chart
2005 7 20 12 26.0 162.6 1000 35 3 Image Chart
2005 7 20 18 26.5 161.9 996 40 3 Image Chart
2005 7 21 00 27.0 161.1 992 45 3 Image Chart
2005 7 21 06 27.6 160.4 992 45 3 Image Chart
2005 7 21 12 28.4 159.5 992 45 3 Image Chart
2005 7 21 18 29.3 158.8 992 45 3 Image Chart
2005 7 22 00 30.0 158.6 992 45 3 Image Chart
2005 7 22 06 30.6 158.7 990 45 3 Image Chart
2005 7 22 12 31.4 159.1 990 45 3 Image Chart
2005 7 22 18 32.1 159.5 990 45 3 Image Chart
2005 7 23 00 32.4 159.7 992 40 3 Image Chart
2005 7 23 06 32.6 160.0 992 40 3 Image Chart
2005 7 23 12 32.7 160.6 992 40 3 Image Chart
2005 7 23 18 33.2 161.7 992 40 3 Image Chart
2005 7 24 00 34.4 162.8 996 35 3 Image Chart
2005 7 24 06 35.0 163.3 996 35 3 Image Chart
2005 7 24 12 35.7 163.9 1000 0 6 Image Chart
2005 7 24 18 36.4 164.4 1002 0 6 Image Chart
2005 7 25 00 37.0 164.9 1004 0 6 Image Chart
2005 7 25 06 37.7 165.4 1004 0 6 Image Chart
2005 7 25 12 38.4 165.8 1004 0 6 Image Chart
2005 7 25 18 38.8 166.1 1004 0 6 Image Chart
2005 7 26 00 39.3 166.0 1004 0 6 Image Chart
2005 7 26 06 39.8 165.8 1004 0 6 Image Chart
2005 7 26 12 40.2 165.7 1004 0 6 Image Chart
2005 7 26 18 40.6 165.6 1004 0 6 Image Chart
2005 7 27 00 41.0 165.6 1004 0 6 Image Chart
2005 7 27 06 41.5 165.5 1006 0 6 Image Chart
2005 7 27 12 42.0 165.5 1006 0 6 Image Chart
2005 7 27 18 42.6 165.5 1006 0 6 Image Chart
Japan Meteorological Agency Best Track Data | Correction Date : 2005-12-19
< Typhoon 200505 2005 Season Typhoon 200507 >

Help